Time;durP1;ratioP1;P1;durP2;ratioP2;P2;SDS_P1;SDS_P2;PMS_P1;PMS_P2;Temp;Humidity;BMP_temperature;BMP_pressure;BME280_temperature;BME280_humidity;BME280_pressure;Samples;Min_cycle;Max_cycle;Signal;HPM_P1;HPM_P2
2023/02/21 02:16:08;;;;;;;283.83;80.00;;;7.00;99.90;;;;;;4971965;28;20503;-78
2023/02/21 02:19:14;;;;;;;285.73;74.32;;;7.00;99.90;;;;;;4960884;28;20605;-77
2023/02/21 02:21:55;;;;;;;286.38;76.97;;;7.00;99.90;;;;;;4961026;28;20046;-78
2023/02/21 02:24:50;;;;;;;305.17;82.75;;;7.00;99.90;;;;;;4963255;28;20133;-77
2023/02/21 02:27:28;;;;;;;318.10;82.70;;;7.00;99.90;;;;;;4944356;28;20050;-78
2023/02/21 02:30:04;;;;;;;302.33;79.55;;;7.00;99.90;;;;;;4974813;28;20405;-77
2023/02/21 02:32:54;;;;;;;317.85;77.07;;;7.00;99.90;;;;;;4970071;28;20089;-77
2023/02/21 02:35:36;;;;;;;322.80;82.03;;;7.00;99.90;;;;;;4951910;28;20054;-78
2023/02/21 02:38:11;;;;;;;329.77;85.72;;;7.00;99.90;;;;;;4956914;28;20315;-78
2023/02/21 02:40:46;;;;;;;342.10;85.55;;;7.00;99.90;;;;;;4971872;28;20061;-76
2023/02/21 02:43:34;;;;;;;303.38;76.55;;;7.00;99.90;;;;;;4951665;28;20479;-77
2023/02/21 02:46:09;;;;;;;342.75;83.45;;;7.00;99.90;;;;;;4958416;28;20634;-78
2023/02/21 02:48:49;;;;;;;297.58;78.10;;;7.00;99.90;;;;;;4965148;28;20053;-80
2023/02/21 02:51:16;;;;;;;301.00;77.53;;;7.00;99.90;;;;;;4945582;28;20050;-81
2023/02/21 02:53:44;;;;;;;313.23;81.60;;;7.00;99.90;;;;;;4957908;28;20115;-79
2023/02/21 02:56:13;;;;;;;306.15;78.80;;;7.00;99.90;;;;;;4954618;28;20050;-78
2023/02/21 02:58:58;;;;;;;302.52;75.70;;;7.00;99.90;;;;;;4959265;28;20041;-79
2023/02/21 03:01:43;;;;;;;336.30;80.82;;;7.00;99.90;;;;;;4966419;28;20088;-77
2023/02/21 03:04:49;;;;;;;339.15;80.25;;;7.00;99.90;;;;;;4953078;28;20054;-79
2023/02/21 03:07:32;;;;;;;346.02;78.05;;;7.00;99.90;;;;;;4956751;28;20504;-80
2023/02/21 03:10:18;;;;;;;377.25;84.60;;;7.00;99.90;;;;;;4946852;28;20057;-79
2023/02/21 03:12:56;;;;;;;358.60;81.13;;;7.00;99.90;;;;;;4944714;28;20052;-80
2023/02/21 03:15:39;;;;;;;320.73;74.95;;;7.00;99.90;;;;;;4959446;28;20054;-81
2023/02/21 03:18:15;;;;;;;386.92;87.60;;;7.00;99.90;;;;;;4946936;28;20393;-78
2023/02/21 03:20:44;;;;;;;414.42;92.18;;;7.00;99.90;;;;;;4953105;28;20105;-79
2023/02/21 03:23:14;;;;;;;319.02;74.28;;;7.00;99.90;;;;;;4963286;28;20546;-81
2023/02/21 03:25:43;;;;;;;368.73;85.38;;;6.90;99.90;;;;;;4946915;28;20101;-81
2023/02/21 03:28:11;;;;;;;388.25;82.50;;;6.90;99.90;;;;;;4945520;28;20076;-79
2023/02/21 03:30:41;;;;;;;410.15;96.47;;;7.00;99.90;;;;;;4944748;28;20043;-79
2023/02/21 03:33:08;;;;;;;422.55;93.15;;;7.00;99.90;;;;;;4963830;28;20053;-82
2023/02/21 03:35:35;;;;;;;414.38;88.38;;;6.90;99.90;;;;;;4960820;28;22518;-81
2023/02/21 03:38:03;;;;;;;485.17;96.68;;;7.00;99.90;;;;;;4962894;28;20054;-79
2023/02/21 03:40:32;;;;;;;495.38;96.20;;;6.90;99.90;;;;;;4959543;28;20089;-79
2023/02/21 03:43:04;;;;;;;409.60;89.45;;;6.90;99.90;;;;;;4954155;28;20038;-79
2023/02/21 03:45:35;;;;;;;466.38;92.85;;;6.90;99.90;;;;;;4958851;28;20124;-81
2023/02/21 03:48:08;;;;;;;548.75;103.53;;;6.90;99.90;;;;;;4969809;28;20149;-81
2023/02/21 03:50:36;;;;;;;661.03;117.30;;;6.90;99.90;;;;;;4965883;28;20050;-81
2023/02/21 03:53:03;;;;;;;641.00;113.88;;;6.90;99.90;;;;;;4963463;28;20036;-79
2023/02/21 03:55:31;;;;;;;628.42;106.32;;;6.90;99.90;;;;;;4959241;28;20050;-80
2023/02/21 03:58:01;;;;;;;577.58;101.93;;;6.90;99.90;;;;;;4969045;28;20050;-78
2023/02/21 04:00:31;;;;;;;738.72;120.28;;;6.90;99.90;;;;;;4964483;28;20049;-80
2023/02/21 04:02:57;;;;;;;682.85;121.50;;;6.90;99.90;;;;;;4965592;28;20097;-79
2023/02/21 04:05:46;;;;;;;518.60;97.63;;;6.90;99.90;;;;;;4961346;28;20054;-79
2023/02/21 04:08:14;;;;;;;602.83;106.55;;;6.90;99.90;;;;;;4961496;28;20137;-79
2023/02/21 04:10:41;;;;;;;668.13;121.13;;;6.80;99.90;;;;;;4963126;28;20186;-78
2023/02/21 04:13:19;;;;;;;674.30;113.28;;;6.80;99.90;;;;;;4964653;28;20054;-77
2023/02/21 04:15:46;;;;;;;665.40;114.70;;;6.90;99.90;;;;;;4947529;28;20058;-78
2023/02/21 04:18:13;;;;;;;673.17;107.40;;;6.80;99.90;;;;;;4959442;28;20038;-79
2023/02/21 04:20:40;;;;;;;725.78;120.55;;;6.90;99.90;;;;;;4943220;28;20280;-79
2023/02/21 04:23:14;;;;;;;706.90;122.15;;;6.80;99.90;;;;;;4947851;28;20113;-78
2023/02/21 04:25:41;;;;;;;683.33;114.97;;;6.90;99.90;;;;;;4961417;28;20100;-77
2023/02/21 04:28:13;;;;;;;637.22;106.25;;;6.80;99.90;;;;;;4957549;28;20042;-78
2023/02/21 04:30:40;;;;;;;660.42;113.45;;;6.80;99.90;;;;;;4942814;28;20089;-77
2023/02/21 04:33:07;;;;;;;775.83;120.35;;;6.80;99.90;;;;;;4968187;28;20572;-77
2023/02/21 04:35:34;;;;;;;740.67;110.68;;;6.80;99.90;;;;;;4964158;28;20128;-76
2023/02/21 04:38:07;;;;;;;788.92;123.97;;;6.80;99.90;;;;;;4955294;28;20038;-78
2023/02/21 04:40:34;;;;;;;837.88;128.35;;;6.80;99.90;;;;;;4961824;28;20142;-78
2023/02/21 04:43:00;;;;;;;890.30;140.35;;;6.80;99.90;;;;;;4975537;28;20034;-80
2023/02/21 04:45:28;;;;;;;890.65;130.73;;;6.80;99.90;;;;;;4959759;28;20042;-77
2023/02/21 04:47:54;;;;;;;950.05;140.25;;;6.80;99.90;;;;;;4961368;28;20142;-78
2023/02/21 04:50:21;;;;;;;845.75;128.68;;;6.80;99.90;;;;;;4965710;28;20046;-78
2023/02/21 04:52:48;;;;;;;854.88;134.30;;;6.80;99.90;;;;;;4966236;28;20140;-77
2023/02/21 04:55:15;;;;;;;1028.65;140.25;;;6.80;99.90;;;;;;4945003;28;20495;-80
2023/02/21 04:57:42;;;;;;;968.80;141.82;;;6.80;99.90;;;;;;4951839;28;20109;-77
2023/02/21 05:00:10;;;;;;;1040.18;146.45;;;6.80;99.90;;;;;;4974149;28;20072;-75
2023/02/21 05:02:36;;;;;;;1145.03;157.35;;;6.80;99.90;;;;;;4961642;28;20046;-77
2023/02/21 05:05:03;;;;;;;929.35;132.20;;;6.80;99.90;;;;;;4947304;28;20042;-79
2023/02/21 05:07:30;;;;;;;527.60;71.32;;;6.80;99.90;;;;;;4955919;28;20443;-77
2023/02/21 05:09:56;;;;;;;956.67;134.57;;;6.80;99.90;;;;;;4962557;28;20093;-76
2023/02/21 05:12:23;;;;;;;1046.90;149.98;;;6.80;99.90;;;;;;4948865;28;20782;-78
2023/02/21 05:14:50;;;;;;;1133.40;159.07;;;6.70;99.90;;;;;;4969246;28;20046;-80
2023/02/21 05:17:17;;;;;;;1023.95;146.15;;;6.80;99.90;;;;;;4946752;28;20038;-78
2023/02/21 05:19:45;;;;;;;1138.05;155.60;;;6.70;99.90;;;;;;4964756;28;20042;-80
2023/02/21 05:22:12;;;;;;;1118.28;162.88;;;6.80;99.90;;;;;;4976030;28;20156;-79
2023/02/21 05:24:45;;;;;;;1021.08;143.27;;;6.80;99.90;;;;;;4970763;28;20058;-77
2023/02/21 05:27:14;;;;;;;1051.07;141.38;;;6.80;99.90;;;;;;4968768;28;20073;-78
2023/02/21 05:29:52;;;;;;;1104.35;150.68;;;6.80;99.90;;;;;;4965045;28;20527;-78
2023/02/21 05:32:20;;;;;;;1279.50;173.50;;;6.80;99.90;;;;;;4945996;28;20047;-76
2023/02/21 05:34:47;;;;;;;1127.20;145.30;;;6.80;99.90;;;;;;4956827;28;20046;-77
2023/02/21 05:37:15;;;;;;;1219.50;169.18;;;6.80;99.90;;;;;;4947978;28;20045;-77
2023/02/21 05:39:42;;;;;;;1198.22;159.77;;;6.80;99.90;;;;;;4971684;28;20085;-79
2023/02/21 05:42:09;;;;;;;1120.20;149.52;;;6.80;99.90;;;;;;4977032;28;20552;-76
2023/02/21 05:44:35;;;;;;;1150.30;154.85;;;6.80;99.90;;;;;;4962775;28;20046;-79
2023/02/21 05:47:02;;;;;;;1113.45;155.38;;;6.80;99.90;;;;;;4966073;28;20042;-78
2023/02/21 05:49:29;;;;;;;1278.55;180.93;;;6.80;99.90;;;;;;4968791;28;20340;-77
2023/02/21 05:51:55;;;;;;;1220.07;172.90;;;6.80;99.90;;;;;;4962805;28;20260;-76
2023/02/21 05:54:22;;;;;;;1021.47;147.18;;;6.80;99.90;;;;;;4972154;28;20315;-77
2023/02/21 05:56:51;;;;;;;930.17;140.00;;;6.80;99.90;;;;;;4954837;28;20076;-78
2023/02/21 05:59:19;;;;;;;1162.28;171.45;;;6.80;99.90;;;;;;4958673;28;20290;-80
2023/02/21 06:01:47;;;;;;;1037.97;146.93;;;6.80;99.90;;;;;;4947166;28;20326;-78
2023/02/21 06:04:14;;;;;;;1036.55;147.20;;;6.80;99.90;;;;;;4950359;28;20035;-78
2023/02/21 06:06:41;;;;;;;1013.05;142.55;;;6.80;99.90;;;;;;4975895;28;20113;-76
2023/02/21 06:09:08;;;;;;;1111.32;150.15;;;6.80;99.90;;;;;;4954791;28;20041;-78
2023/02/21 06:11:37;;;;;;;1078.32;154.85;;;6.80;99.90;;;;;;4967606;28;20070;-78
2023/02/21 06:14:14;;;;;;;999.83;139.13;;;6.80;99.90;;;;;;4952545;28;20045;-78
2023/02/21 06:16:41;;;;;;;999.38;129.98;;;6.80;99.90;;;;;;4975553;28;20747;-79
2023/02/21 06:19:09;;;;;;;1005.65;152.98;;;6.80;99.90;;;;;;4966092;28;20098;-76
2023/02/21 06:21:36;;;;;;;827.22;124.82;;;6.80;99.90;;;;;;4962358;28;20373;-77
2023/02/21 06:24:03;;;;;;;1069.63;145.93;;;6.80;99.90;;;;;;4957773;28;20050;-78
2023/02/21 06:26:30;;;;;;;1073.25;149.02;;;6.80;99.90;;;;;;4965614;28;20035;-78
2023/02/21 06:28:57;;;;;;;844.58;121.10;;;6.80;99.90;;;;;;4953406;28;20430;-78
2023/02/21 06:31:24;;;;;;;1024.32;146.13;;;6.80;99.90;;;;;;4954403;28;20121;-78
2023/02/21 06:33:51;;;;;;;909.05;133.77;;;6.80;99.90;;;;;;4974437;28;20193;-78
2023/02/21 06:36:26;;;;;;;983.55;134.10;;;6.80;99.90;;;;;;4961838;28;20038;-78
2023/02/21 06:38:55;;;;;;;774.60;122.25;;;6.80;99.90;;;;;;4947998;28;20050;-78
2023/02/21 06:41:27;;;;;;;927.60;138.23;;;6.80;99.90;;;;;;4949946;28;20104;-77
2023/02/21 06:43:55;;;;;;;924.08;135.27;;;6.80;99.90;;;;;;4971817;28;20651;-76
2023/02/21 06:46:25;;;;;;;976.70;140.30;;;6.80;99.90;;;;;;4952837;28;20038;-77
2023/02/21 06:48:52;;;;;;;1049.55;147.20;;;6.80;99.90;;;;;;4962439;28;20053;-76
2023/02/21 06:51:19;;;;;;;968.10;138.90;;;6.80;99.90;;;;;;4958064;28;20042;-78
2023/02/21 06:53:49;;;;;;;1029.85;147.77;;;6.80;99.90;;;;;;4971119;28;20078;-78
2023/02/21 06:56:16;;;;;;;822.90;124.93;;;6.80;99.90;;;;;;4988015;28;20042;-77
2023/02/21 06:58:42;;;;;;;876.03;135.05;;;6.80;99.90;;;;;;4964990;28;20053;-78
2023/02/21 07:01:09;;;;;;;851.33;128.95;;;6.80;99.90;;;;;;4970555;28;20534;-76
2023/02/21 07:03:42;;;;;;;784.97;123.70;;;6.80;99.90;;;;;;4969883;28;20049;-79
2023/02/21 07:06:09;;;;;;;692.47;118.32;;;6.90;99.90;;;;;;4964138;28;20050;-77
2023/02/21 07:08:35;;;;;;;703.78;118.72;;;6.90;99.90;;;;;;4975822;28;20046;-77
2023/02/21 07:11:02;;;;;;;699.53;120.63;;;6.90;99.90;;;;;;4965413;28;20385;-77
2023/02/21 07:13:29;;;;;;;733.92;122.95;;;6.90;99.90;;;;;;4963263;28;20313;-78
2023/02/21 07:15:56;;;;;;;551.30;101.65;;;6.90;99.90;;;;;;4973099;28;20690;-77
2023/02/21 07:18:23;;;;;;;638.90;115.13;;;6.90;99.90;;;;;;4961880;28;20046;-78
2023/02/21 07:20:49;;;;;;;590.13;102.13;;;6.90;99.90;;;;;;4965887;28;20037;-77
2023/02/21 07:23:16;;;;;;;524.42;94.78;;;6.90;99.90;;;;;;4947536;28;20042;-77
2023/02/21 07:25:43;;;;;;;582.05;107.78;;;7.00;99.90;;;;;;4962978;28;20050;-78
2023/02/21 07:28:11;;;;;;;545.28;105.90;;;6.90;99.90;;;;;;4964115;28;20085;-76
2023/02/21 07:30:38;;;;;;;486.02;101.45;;;7.00;99.90;;;;;;4966708;28;20042;-77
2023/02/21 07:33:05;;;;;;;427.27;95.93;;;7.00;99.90;;;;;;4962431;28;20077;-76
2023/02/21 07:35:31;;;;;;;489.13;101.00;;;6.90;99.90;;;;;;4963798;28;20116;-77
2023/02/21 07:37:58;;;;;;;495.25;97.70;;;7.00;99.90;;;;;;4950112;28;20234;-76
2023/02/21 07:40:25;;;;;;;442.52;92.07;;;7.00;99.90;;;;;;4940637;28;20046;-76
2023/02/21 07:42:51;;;;;;;457.08;92.75;;;7.00;99.90;;;;;;4963275;28;20030;-76
2023/02/21 07:45:18;;;;;;;458.67;96.78;;;7.00;99.90;;;;;;4965550;28;20042;-77
2023/02/21 07:47:45;;;;;;;445.40;92.22;;;7.00;99.90;;;;;;4956931;28;20053;-76
2023/02/21 07:50:15;;;;;;;463.58;95.55;;;7.00;99.90;;;;;;4951024;28;20044;-77
2023/02/21 07:52:42;;;;;;;408.48;86.68;;;7.00;99.90;;;;;;4960054;28;20046;-78
2023/02/21 07:55:11;;;;;;;413.55;91.93;;;7.00;99.90;;;;;;4968598;28;20461;-77
2023/02/21 07:57:38;;;;;;;445.40;90.22;;;7.00;99.90;;;;;;4962563;28;20038;-78
2023/02/21 08:00:05;;;;;;;432.98;89.80;;;7.00;99.90;;;;;;4981419;28;20769;-77
2023/02/21 08:02:38;;;;;;;424.45;86.80;;;7.00;99.90;;;;;;4969695;28;20046;-77
2023/02/21 08:05:06;;;;;;;442.48;90.32;;;7.00;99.90;;;;;;4954849;28;20034;-78
2023/02/21 08:07:33;;;;;;;421.58;87.20;;;7.10;99.90;;;;;;4959003;28;20066;-78
2023/02/21 08:10:00;;;;;;;407.35;87.82;;;7.00;99.90;;;;;;4983369;28;20046;-78
2023/02/21 08:12:27;;;;;;;448.77;88.93;;;7.00;99.90;;;;;;4967965;28;20077;-77
2023/02/21 08:14:53;;;;;;;423.73;85.05;;;7.00;99.90;;;;;;4950014;28;20157;-78
2023/02/21 08:17:20;;;;;;;418.65;86.43;;;7.00;99.90;;;;;;4962605;28;20451;-78
2023/02/21 08:19:47;;;;;;;410.55;89.85;;;7.00;99.90;;;;;;4960979;28;20042;-75
2023/02/21 08:22:13;;;;;;;382.20;80.53;;;7.00;99.90;;;;;;4962597;28;20046;-76
2023/02/21 08:24:40;;;;;;;388.98;86.68;;;7.00;99.90;;;;;;4946464;28;20145;-78
2023/02/21 08:27:07;;;;;;;406.17;85.35;;;7.00;99.90;;;;;;4968423;28;20037;-76
2023/02/21 08:29:33;;;;;;;443.58;88.35;;;7.00;99.90;;;;;;4966832;28;20741;-75
2023/02/21 08:32:01;;;;;;;448.17;89.00;;;7.10;99.90;;;;;;4970976;28;20510;-78
2023/02/21 08:34:30;;;;;;;374.17;82.07;;;7.10;99.90;;;;;;4942956;28;20034;-77
2023/02/21 08:36:57;;;;;;;420.23;87.95;;;7.10;99.90;;;;;;4960318;28;20038;-78
2023/02/21 08:39:23;;;;;;;362.27;80.82;;;7.10;99.90;;;;;;4966171;28;20042;-76
2023/02/21 08:41:51;;;;;;;394.27;82.75;;;7.10;99.90;;;;;;4956273;28;20069;-78
2023/02/21 08:44:20;;;;;;;409.92;84.93;;;7.10;99.90;;;;;;4967130;28;20129;-77
2023/02/21 08:46:47;;;;;;;426.85;88.93;;;7.10;99.90;;;;;;4964107;28;20128;-77
2023/02/21 08:49:15;;;;;;;396.88;85.10;;;7.10;99.90;;;;;;4969524;28;20049;-77
2023/02/21 08:51:42;;;;;;;397.17;87.35;;;7.20;99.90;;;;;;4972379;28;20502;-78
2023/02/21 08:54:09;;;;;;;378.65;80.80;;;7.20;99.90;;;;;;4949747;28;20038;-82
2023/02/21 08:56:36;;;;;;;341.75;74.40;;;7.20;99.90;;;;;;4973101;28;20042;-81
2023/02/21 08:59:03;;;;;;;434.52;84.15;;;7.20;99.90;;;;;;4970331;28;20042;-81
2023/02/21 09:01:33;;;;;;;395.60;84.18;;;7.20;99.90;;;;;;4982239;28;20052;-80
2023/02/21 09:04:01;;;;;;;377.20;82.85;;;7.20;99.90;;;;;;4993384;28;20050;-79
2023/02/21 09:06:28;;;;;;;405.45;82.45;;;7.20;99.90;;;;;;4949199;28;20042;-80
2023/02/21 09:08:54;;;;;;;434.60;88.18;;;7.20;99.90;;;;;;4947882;28;20172;-78
2023/02/21 09:11:21;;;;;;;426.48;86.22;;;7.20;99.90;;;;;;4978816;28;20097;-78
2023/02/21 09:13:48;;;;;;;383.08;81.88;;;7.20;99.90;;;;;;4971833;28;20038;-78
2023/02/21 09:16:15;;;;;;;391.98;79.30;;;7.30;99.90;;;;;;4971554;28;20070;-81
2023/02/21 09:18:41;;;;;;;351.95;78.38;;;7.20;99.90;;;;;;4955018;28;20435;-79
2023/02/21 09:21:08;;;;;;;363.75;81.13;;;7.30;99.90;;;;;;4957562;28;20039;-80
2023/02/21 09:23:35;;;;;;;385.42;84.05;;;7.30;99.90;;;;;;4962494;28;20096;-83
2023/02/21 09:26:02;;;;;;;407.58;87.20;;;7.30;99.90;;;;;;4974959;28;20133;-79
2023/02/21 09:28:30;;;;;;;394.75;84.35;;;7.30;99.90;;;;;;4968333;28;20056;-80
2023/02/21 09:30:57;;;;;;;365.70;79.88;;;7.30;99.90;;;;;;4962319;28;20527;-79
2023/02/21 09:33:23;;;;;;;392.63;81.75;;;7.30;99.90;;;;;;4962076;28;20045;-82
2023/02/21 09:35:52;;;;;;;400.38;80.15;;;7.30;99.90;;;;;;4954076;28;20042;-78
2023/02/21 09:38:19;;;;;;;363.92;79.90;;;7.30;99.90;;;;;;4945090;28;20516;-78
2023/02/21 09:41:06;;;;;;;340.05;74.53;;;7.40;99.90;;;;;;4953104;28;20580;-80
2023/02/21 09:43:46;;;;;;;301.55;67.80;;;7.40;99.90;;;;;;4946348;28;20141;-78
2023/02/21 09:46:23;;;;;;;298.85;68.28;;;7.40;99.90;;;;;;4947532;28;20043;-80
2023/02/21 09:48:51;;;;;;;279.83;65.90;;;7.50;99.90;;;;;;4991456;28;20057;-80
2023/02/21 09:51:18;;;;;;;289.90;61.33;;;7.50;99.90;;;;;;4957598;28;20492;-80
2023/02/21 09:53:47;;;;;;;293.08;66.28;;;7.40;99.90;;;;;;4975286;28;20396;-81
2023/02/21 09:56:49;;;;;;;307.30;68.07;;;7.50;99.90;;;;;;4960410;28;20073;-78
2023/02/21 09:59:16;;;;;;;323.48;68.70;;;7.50;99.90;;;;;;4879064;29;20111;-78
2023/02/21 10:01:54;;;;;;;267.85;64.00;;;7.60;99.90;;;;;;4948172;28;20049;-80
2023/02/21 10:04:32;;;;;;;259.13;61.97;;;7.60;99.90;;;;;;4953189;28;20057;-80
2023/02/21 10:07:05;;;;;;;269.85;64.32;;;7.50;99.90;;;;;;4966608;28;20133;-82
2023/02/21 10:09:58;;;;;;;275.85;60.65;;;7.60;99.90;;;;;;4961723;28;20355;-80
2023/02/21 10:12:34;;;;;;;306.20;67.13;;;7.60;99.90;;;;;;4973663;28;20046;-81
2023/02/21 10:15:10;;;;;;;262.40;62.65;;;7.60;99.90;;;;;;4947404;28;20050;-80
2023/02/21 10:17:59;;;;;;;291.40;63.50;;;7.50;99.90;;;;;;4949558;28;20042;-80
2023/02/21 10:20:42;;;;;;;321.40;67.88;;;7.60;99.90;;;;;;4962675;28;20069;-77
2023/02/21 10:23:26;;;;;;;320.27;68.72;;;7.60;99.90;;;;;;4946494;28;20053;-80
2023/02/21 10:26:01;;;;;;;354.58;71.53;;;7.70;99.90;;;;;;4977052;28;20038;-79
2023/02/21 10:28:28;;;;;;;305.27;69.97;;;7.70;99.90;;;;;;4974509;28;20053;-78
2023/02/21 10:31:01;;;;;;;270.02;63.20;;;7.60;99.90;;;;;;4963810;28;20045;-78
2023/02/21 10:33:29;;;;;;;299.83;67.25;;;7.70;99.90;;;;;;4973493;28;20104;-79
2023/02/21 10:35:56;;;;;;;330.17;70.97;;;7.60;99.90;;;;;;4963247;28;20127;-78
2023/02/21 10:38:25;;;;;;;316.00;70.65;;;7.50;99.90;;;;;;4968781;28;20042;-79
2023/02/21 10:40:58;;;;;;;291.90;71.32;;;7.60;99.90;;;;;;4971901;28;20136;-78
2023/02/21 10:43:47;;;;;;;284.35;67.13;;;7.60;99.90;;;;;;4968008;28;20042;-79
2023/02/21 10:46:30;;;;;;;290.40;68.47;;;7.60;99.90;;;;;;4948981;28;20042;-77
2023/02/21 10:49:19;;;;;;;323.65;73.78;;;7.60;99.90;;;;;;4960463;28;20519;-77
2023/02/21 10:51:46;;;;;;;364.65;75.70;;;7.60;99.90;;;;;;4974631;28;20065;-77
2023/02/21 10:54:24;;;;;;;369.55;78.20;;;7.60;99.90;;;;;;4955896;28;20054;-79
2023/02/21 10:56:52;;;;;;;343.55;73.72;;;7.60;99.90;;;;;;4959005;28;20073;-78
2023/02/21 10:59:26;;;;;;;347.83;76.78;;;7.60;99.90;;;;;;4957528;28;20046;-78
2023/02/21 11:01:54;;;;;;;374.98;77.47;;;7.60;99.90;;;;;;4975254;28;20038;-78
2023/02/21 11:04:21;;;;;;;414.13;78.53;;;7.60;99.90;;;;;;4977079;28;20072;-79
2023/02/21 11:07:00;;;;;;;409.13;79.20;;;7.50;99.90;;;;;;4952684;28;20729;-77
2023/02/21 11:09:26;;;;;;;422.33;84.22;;;7.50;99.90;;;;;;4969814;28;20455;-79
2023/02/21 11:12:30;;;;;;;463.75;89.95;;;7.50;99.90;;;;;;4969344;28;20112;-78
2023/02/21 11:14:57;;;;;;;601.97;104.28;;;7.60;99.90;;;;;;4947017;28;20092;-78
2023/02/21 11:17:27;;;;;;;717.70;111.57;;;7.60;99.90;;;;;;4957139;28;20047;-78
2023/02/21 11:19:56;;;;;;;730.25;117.60;;;7.60;99.90;;;;;;4963626;28;20070;-78
2023/02/21 11:22:41;;;;;;;735.67;122.28;;;7.60;99.90;;;;;;4954937;28;20046;-78
2023/02/21 11:25:11;;;;;;;569.97;99.10;;;7.60;99.90;;;;;;4957237;28;20550;-79
2023/02/21 11:27:38;;;;;;;596.55;99.85;;;7.50;99.90;;;;;;4970019;28;21070;-79
2023/02/21 11:30:20;;;;;;;576.40;108.57;;;7.60;99.90;;;;;;4994351;28;20129;-77
2023/02/21 11:32:54;;;;;;;570.47;98.47;;;7.70;99.90;;;;;;4954781;28;20252;-77
2023/02/21 11:35:34;;;;;;;434.13;89.68;;;7.80;99.90;;;;;;4954287;28;20050;-78
2023/02/21 11:38:28;;;;;;;432.75;86.15;;;7.70;99.90;;;;;;4981966;28;20052;-78
2023/02/21 11:40:55;;;;;;;459.15;88.75;;;7.70;99.90;;;;;;4968932;28;20594;-78
2023/02/21 11:43:27;;;;;;;473.48;93.00;;;7.80;99.90;;;;;;4965241;28;20430;-78
2023/02/21 11:46:15;;;;;;;482.75;93.70;;;7.80;99.90;;;;;;4970638;28;20370;-79
2023/02/21 11:48:50;;;;;;;522.60;100.75;;;7.70;99.90;;;;;;4973820;28;20156;-78
2023/02/21 11:51:24;;;;;;;;;;;7.70;99.90;;;;;;4970691;28;20053;-78
2023/02/21 11:53:51;;;;;;;519.33;95.70;;;7.70;99.90;;;;;;4969174;28;19925;-76
2023/02/21 11:56:27;;;;;;;569.50;102.40;;;7.70;99.90;;;;;;4988495;28;20052;-80
2023/02/21 11:59:03;;;;;;;620.20;107.00;;;7.80;99.90;;;;;;4951725;28;20038;-76
2023/02/21 12:02:03;;;;;;;673.80;112.15;;;7.90;99.90;;;;;;4961751;28;20132;-79
2023/02/21 12:05:00;;;;;;;547.92;99.95;;;7.80;99.90;;;;;;4974062;28;20049;-78
2023/02/21 12:07:39;;;;;;;612.60;105.32;;;7.80;99.90;;;;;;4964867;28;20042;-78
2023/02/21 12:10:40;;;;;;;536.47;100.75;;;7.90;99.90;;;;;;4954050;28;20042;-78
2023/02/21 12:13:23;;;;;;;577.92;101.28;;;7.90;99.90;;;;;;4954632;28;20459;-76
2023/02/21 12:16:32;;;;;;;529.20;100.35;;;7.80;99.90;;;;;;4948928;28;20051;-79
2023/02/21 12:19:25;;;;;;;616.28;107.55;;;7.80;99.90;;;;;;4962298;28;20085;-77
2023/02/21 12:22:13;;;;;;;563.40;107.47;;;7.80;99.90;;;;;;4970908;28;20092;-76
2023/02/21 12:25:05;;;;;;;641.90;108.28;;;7.90;99.90;;;;;;4975028;28;20050;-78
2023/02/21 12:27:52;;;;;;;609.13;109.25;;;7.90;99.90;;;;;;4965085;28;20693;-78
2023/02/21 12:30:38;;;;;;;614.78;110.00;;;8.00;99.90;;;;;;4942289;28;20706;-77
2023/02/21 12:33:15;;;;;;;497.80;93.47;;;7.90;99.90;;;;;;4971199;28;20038;-77
2023/02/21 12:36:01;;;;;;;458.05;90.63;;;7.90;99.90;;;;;;4961651;28;20050;-78
2023/02/21 12:38:45;;;;;;;419.85;86.07;;;7.90;99.90;;;;;;4964323;28;20769;-76
2023/02/21 12:41:50;;;;;;;454.92;93.97;;;7.90;99.90;;;;;;4976739;28;20382;-76
2023/02/21 12:45:00;;;;;;;518.28;94.78;;;7.90;99.90;;;;;;4987919;28;20447;-76
2023/02/21 12:47:54;;;;;;;430.05;90.30;;;7.90;99.90;;;;;;4979877;28;20118;-77
2023/02/21 12:50:25;;;;;;;452.73;92.28;;;7.90;99.90;;;;;;4974287;28;20046;-81
2023/02/21 12:53:02;;;;;;;373.73;85.05;;;7.90;99.90;;;;;;4978268;28;20046;-79
2023/02/21 12:55:44;;;;;;;388.67;83.72;;;8.00;99.90;;;;;;4954351;28;20050;-79
2023/02/21 12:58:30;;;;;;;344.25;81.85;;;8.00;99.90;;;;;;4965147;28;20060;-80
2023/02/21 13:01:22;;;;;;;336.55;76.43;;;8.00;99.90;;;;;;4950302;28;20161;-80
2023/02/21 13:04:13;;;;;;;337.52;77.75;;;7.90;99.90;;;;;;4968435;28;20066;-80
2023/02/21 13:07:24;;;;;;;351.10;86.05;;;7.90;99.90;;;;;;4987638;28;20046;-77
2023/02/21 13:10:02;;;;;;;370.75;86.55;;;7.90;99.90;;;;;;4967561;28;20127;-77
2023/02/21 13:12:44;;;;;;;351.63;77.53;;;7.90;99.90;;;;;;4968515;28;20050;-79
2023/02/21 13:15:14;;;;;;;337.35;81.00;;;7.90;99.90;;;;;;4965641;28;20184;-84
2023/02/21 13:17:43;;;;;;;329.83;78.07;;;7.90;99.90;;;;;;4989118;28;20136;-80
2023/02/21 13:20:17;;;;;;;342.15;81.95;;;7.90;99.90;;;;;;4969654;28;20046;-83
2023/02/21 13:23:37;;;;;;;358.42;84.70;;;7.90;99.90;;;;;;4952559;28;20050;-79
2023/02/21 13:27:06;;;;;;;295.42;73.53;;;8.00;99.90;;;;;;4973025;28;20046;-77
2023/02/21 13:29:36;;;;;;;293.65;72.05;;;8.00;99.90;;;;;;4926529;28;20058;-77
2023/02/21 13:32:15;;;;;;;268.50;70.05;;;7.90;99.90;;;;;;4970845;28;20352;-76
2023/02/21 13:34:46;;;;;;;240.48;66.35;;;8.00;99.90;;;;;;4965261;28;20374;-81
2023/02/21 13:37:18;;;;;;;242.35;62.47;;;8.00;99.90;;;;;;4973309;28;20573;-83
2023/02/21 13:39:51;;;;;;;263.33;67.00;;;8.00;99.90;;;;;;4979214;28;20114;-77
2023/02/21 13:42:23;;;;;;;274.27;70.85;;;8.00;99.90;;;;;;4951912;28;20241;-77
2023/02/21 13:45:11;;;;;;;268.65;73.22;;;8.00;99.90;;;;;;4969134;28;20057;-77
2023/02/21 13:48:00;;;;;;;299.48;73.55;;;8.00;99.90;;;;;;4973454;28;20042;-79
2023/02/21 13:50:36;;;;;;;277.60;70.70;;;8.00;99.90;;;;;;4964916;28;20048;-77
2023/02/21 13:53:07;;;;;;;304.92;75.18;;;8.00;99.90;;;;;;4965282;28;20065;-79
2023/02/21 13:55:35;;;;;;;297.35;74.72;;;8.10;99.90;;;;;;4954529;28;20390;-77
2023/02/21 13:58:04;;;;;;;306.00;75.22;;;8.10;99.90;;;;;;4945221;28;20431;-78
2023/02/21 14:00:30;;;;;;;297.83;77.15;;;8.10;99.90;;;;;;4988067;28;20057;-79
2023/02/21 14:03:23;;;;;;;305.42;74.63;;;8.10;99.90;;;;;;4973125;28;20053;-79
2023/02/21 14:05:50;;;;;;;283.65;71.05;;;8.20;99.90;;;;;;4974119;28;20058;-77
2023/02/21 14:08:29;;;;;;;254.55;70.40;;;8.20;99.90;;;;;;4980404;28;20080;-82
2023/02/21 14:11:05;;;;;;;240.10;65.43;;;8.10;99.90;;;;;;4959610;28;20043;-78
2023/02/21 14:13:40;;;;;;;244.25;65.85;;;8.10;99.90;;;;;;4973481;28;20053;-78
2023/02/21 14:16:07;;;;;;;251.40;66.18;;;8.10;99.90;;;;;;4963237;28;20042;-77
2023/02/21 14:18:49;;;;;;;285.73;71.50;;;8.10;99.90;;;;;;4970087;28;20460;-81
2023/02/21 14:21:21;;;;;;;267.25;69.72;;;8.10;99.90;;;;;;4968127;28;20069;-77
2023/02/21 14:24:04;;;;;;;286.33;70.57;;;8.20;99.90;;;;;;4973054;28;20208;-78
2023/02/21 14:26:55;;;;;;;297.90;74.55;;;8.20;99.90;;;;;;4970596;28;20134;-78
2023/02/21 14:29:39;;;;;;;304.20;76.00;;;8.20;99.90;;;;;;4970946;28;20056;-81
2023/02/21 14:32:09;;;;;;;322.90;78.40;;;8.20;99.90;;;;;;4962432;28;20066;-79
2023/02/21 14:34:46;;;;;;;249.73;68.38;;;8.30;99.90;;;;;;4981458;28;20113;-79
2023/02/21 14:37:35;;;;;;;248.63;67.57;;;8.30;99.90;;;;;;4953805;28;20046;-79
2023/02/21 14:40:16;;;;;;;230.70;62.67;;;8.20;99.90;;;;;;4967319;28;20042;-78
2023/02/21 14:43:21;;;;;;;236.75;65.50;;;8.20;99.90;;;;;;4974483;28;20848;-76
2023/02/21 14:46:00;;;;;;;228.23;63.90;;;8.10;99.90;;;;;;4992371;23;20044;-73
2023/02/21 14:48:56;;;;;;;231.02;63.13;;;8.10;99.90;;;;;;4992757;28;20049;-73
2023/02/21 14:51:50;;;;;;;227.73;64.53;;;8.20;99.90;;;;;;4989764;28;20490;-73
2023/02/21 14:54:48;;;;;;;217.25;60.38;;;8.30;99.90;;;;;;4995684;28;20064;-73
2023/02/21 14:57:45;;;;;;;200.82;56.15;;;8.20;99.90;;;;;;4993732;28;20045;-73
2023/02/21 15:00:17;;;;;;;229.00;60.00;;;8.10;99.90;;;;;;4993030;28;20033;-73
2023/02/21 15:03:06;;;;;;;233.65;61.30;;;8.10;99.90;;;;;;4998733;28;20077;-73
2023/02/21 15:05:41;;;;;;;228.25;60.10;;;8.20;99.90;;;;;;4985304;28;20766;-73
2023/02/21 15:08:14;;;;;;;;;;;8.10;99.90;;;;;;4993283;28;20067;-73
2023/02/21 15:10:46;;;;;;;246.45;60.17;;;8.20;99.90;;;;;;4989315;28;20155;-73
2023/02/21 15:13:23;;;;;;;231.73;60.67;;;8.20;99.90;;;;;;4993111;28;20144;-73